sensor_id;sensor_type;location;lat;lon;timestamp;P1;durP1;ratioP1;P2;durP2;ratioP2
39426;SDS011;25938;48.470;1.486;2023-03-11T00:01:38;2.13;;;1.60;;
39426;SDS011;25938;48.470;1.486;2023-03-11T00:04:05;1.98;;;1.02;;
39426;SDS011;25938;48.470;1.486;2023-03-11T00:06:33;2.47;;;1.17;;
39426;SDS011;25938;48.470;1.486;2023-03-11T00:08:59;1.27;;;1.15;;
39426;SDS011;25938;48.470;1.486;2023-03-11T00:11:25;1.75;;;0.80;;
39426;SDS011;25938;48.470;1.486;2023-03-11T00:13:51;1.10;;;0.98;;
39426;SDS011;25938;48.470;1.486;2023-03-11T00:16:17;1.80;;;1.10;;
39426;SDS011;25938;48.470;1.486;2023-03-11T00:18:43;1.45;;;1.35;;
39426;SDS011;25938;48.470;1.486;2023-03-11T00:21:13;1.85;;;1.38;;
39426;SDS011;25938;48.470;1.486;2023-03-11T00:23:40;2.47;;;0.75;;
39426;SDS011;25938;48.470;1.486;2023-03-11T00:26:06;1.50;;;0.60;;
39426;SDS011;25938;48.470;1.486;2023-03-11T00:28:32;2.45;;;0.98;;
39426;SDS011;25938;48.470;1.486;2023-03-11T00:30:58;2.50;;;0.95;;
39426;SDS011;25938;48.470;1.486;2023-03-11T00:33:24;2.17;;;1.33;;
39426;SDS011;25938;48.470;1.486;2023-03-11T00:35:51;2.17;;;0.98;;
39426;SDS011;25938;48.470;1.486;2023-03-11T00:38:17;1.00;;;0.90;;
39426;SDS011;25938;48.470;1.486;2023-03-11T00:40:44;2.38;;;0.77;;
39426;SDS011;25938;48.470;1.486;2023-03-11T00:43:10;1.30;;;1.10;;
39426;SDS011;25938;48.470;1.486;2023-03-11T00:45:36;2.05;;;0.80;;
39426;SDS011;25938;48.470;1.486;2023-03-11T00:48:03;1.20;;;0.90;;
39426;SDS011;25938;48.470;1.486;2023-03-11T00:50:30;1.73;;;0.52;;
39426;SDS011;25938;48.470;1.486;2023-03-11T00:52:56;1.10;;;0.75;;
39426;SDS011;25938;48.470;1.486;2023-03-11T00:55:27;0.80;;;0.70;;
39426;SDS011;25938;48.470;1.486;2023-03-11T00:57:54;1.05;;;0.80;;
39426;SDS011;25938;48.470;1.486;2023-03-11T01:00:22;1.05;;;0.80;;
39426;SDS011;25938;48.470;1.486;2023-03-11T01:02:48;1.50;;;0.93;;
39426;SDS011;25938;48.470;1.486;2023-03-11T01:05:14;0.75;;;0.60;;
39426;SDS011;25938;48.470;1.486;2023-03-11T01:07:42;0.88;;;0.68;;
39426;SDS011;25938;48.470;1.486;2023-03-11T01:10:09;1.98;;;0.80;;
39426;SDS011;25938;48.470;1.486;2023-03-11T01:12:35;3.45;;;1.23;;
39426;SDS011;25938;48.470;1.486;2023-03-11T01:15:01;1.90;;;0.73;;
39426;SDS011;25938;48.470;1.486;2023-03-11T01:17:27;0.98;;;0.90;;
39426;SDS011;25938;48.470;1.486;2023-03-11T01:19:53;1.23;;;0.80;;
39426;SDS011;25938;48.470;1.486;2023-03-11T01:22:19;3.63;;;0.90;;
39426;SDS011;25938;48.470;1.486;2023-03-11T01:24:45;1.20;;;1.10;;
39426;SDS011;25938;48.470;1.486;2023-03-11T01:27:11;1.10;;;1.00;;
39426;SDS011;25938;48.470;1.486;2023-03-11T01:29:37;2.30;;;0.93;;
39426;SDS011;25938;48.470;1.486;2023-03-11T01:32:04;1.83;;;1.10;;
39426;SDS011;25938;48.470;1.486;2023-03-11T01:34:30;1.85;;;0.77;;
39426;SDS011;25938;48.470;1.486;2023-03-11T01:36:59;1.02;;;0.73;;
39426;SDS011;25938;48.470;1.486;2023-03-11T01:39:25;2.03;;;1.15;;
39426;SDS011;25938;48.470;1.486;2023-03-11T01:41:51;1.65;;;1.17;;
39426;SDS011;25938;48.470;1.486;2023-03-11T01:44:17;1.38;;;1.10;;
39426;SDS011;25938;48.470;1.486;2023-03-11T01:49:22;2.30;;;1.33;;
39426;SDS011;25938;48.470;1.486;2023-03-11T01:51:49;1.08;;;1.00;;
39426;SDS011;25938;48.470;1.486;2023-03-11T01:56:45;2.22;;;1.35;;
39426;SDS011;25938;48.470;1.486;2023-03-11T01:59:12;1.75;;;1.20;;
39426;SDS011;25938;48.470;1.486;2023-03-11T02:01:42;1.77;;;1.33;;
39426;SDS011;25938;48.470;1.486;2023-03-11T02:04:10;1.98;;;1.88;;
39426;SDS011;25938;48.470;1.486;2023-03-11T02:06:36;1.67;;;1.38;;
39426;SDS011;25938;48.470;1.486;2023-03-11T02:09:02;1.90;;;1.73;;
39426;SDS011;25938;48.470;1.486;2023-03-11T02:11:28;3.20;;;2.08;;
39426;SDS011;25938;48.470;1.486;2023-03-11T02:13:57;2.25;;;1.70;;
39426;SDS011;25938;48.470;1.486;2023-03-11T02:16:24;1.77;;;1.58;;
39426;SDS011;25938;48.470;1.486;2023-03-11T02:18:50;2.22;;;1.70;;
39426;SDS011;25938;48.470;1.486;2023-03-11T02:21:24;2.03;;;1.85;;
39426;SDS011;25938;48.470;1.486;2023-03-11T02:26:21;3.10;;;2.47;;
39426;SDS011;25938;48.470;1.486;2023-03-11T02:28:48;2.45;;;2.13;;
39426;SDS011;25938;48.470;1.486;2023-03-11T02:31:15;3.33;;;1.92;;
39426;SDS011;25938;48.470;1.486;2023-03-11T02:33:41;3.60;;;2.45;;
39426;SDS011;25938;48.470;1.486;2023-03-11T02:36:28;4.13;;;2.28;;
39426;SDS011;25938;48.470;1.486;2023-03-11T02:38:54;3.30;;;2.25;;
39426;SDS011;25938;48.470;1.486;2023-03-11T02:41:20;2.88;;;2.00;;
39426;SDS011;25938;48.470;1.486;2023-03-11T02:43:46;2.83;;;2.03;;
39426;SDS011;25938;48.470;1.486;2023-03-11T02:46:13;4.25;;;1.83;;
39426;SDS011;25938;48.470;1.486;2023-03-11T02:48:39;2.33;;;2.00;;
39426;SDS011;25938;48.470;1.486;2023-03-11T02:51:06;2.30;;;2.00;;
39426;SDS011;25938;48.470;1.486;2023-03-11T02:53:34;2.45;;;1.75;;
39426;SDS011;25938;48.470;1.486;2023-03-11T02:56:02;4.72;;;1.83;;
39426;SDS011;25938;48.470;1.486;2023-03-11T02:58:28;1.88;;;1.35;;
39426;SDS011;25938;48.470;1.486;2023-03-11T03:00:54;1.75;;;1.25;;
39426;SDS011;25938;48.470;1.486;2023-03-11T03:03:20;1.13;;;1.02;;
39426;SDS011;25938;48.470;1.486;2023-03-11T03:05:46;4.03;;;1.00;;
39426;SDS011;25938;48.470;1.486;2023-03-11T03:08:12;1.75;;;0.80;;
39426;SDS011;25938;48.470;1.486;2023-03-11T03:10:38;1.45;;;1.25;;
39426;SDS011;25938;48.470;1.486;2023-03-11T03:13:04;1.02;;;0.80;;
39426;SDS011;25938;48.470;1.486;2023-03-11T03:15:30;0.75;;;0.75;;
39426;SDS011;25938;48.470;1.486;2023-03-11T03:17:56;2.08;;;1.25;;
39426;SDS011;25938;48.470;1.486;2023-03-11T03:20:22;1.73;;;0.93;;
39426;SDS011;25938;48.470;1.486;2023-03-11T03:22:50;0.88;;;0.50;;
39426;SDS011;25938;48.470;1.486;2023-03-11T03:25:16;1.75;;;0.60;;
39426;SDS011;25938;48.470;1.486;2023-03-11T03:27:43;0.70;;;0.70;;
39426;SDS011;25938;48.470;1.486;2023-03-11T03:30:09;0.93;;;0.63;;
39426;SDS011;25938;48.470;1.486;2023-03-11T03:32:35;0.98;;;0.60;;
39426;SDS011;25938;48.470;1.486;2023-03-11T03:35:02;1.23;;;0.68;;
39426;SDS011;25938;48.470;1.486;2023-03-11T03:37:30;2.05;;;0.47;;
39426;SDS011;25938;48.470;1.486;2023-03-11T03:39:57;0.95;;;0.60;;
39426;SDS011;25938;48.470;1.486;2023-03-11T03:42:23;0.52;;;0.45;;
39426;SDS011;25938;48.470;1.486;2023-03-11T03:44:49;1.65;;;0.82;;
39426;SDS011;25938;48.470;1.486;2023-03-11T03:47:17;2.05;;;1.15;;
39426;SDS011;25938;48.470;1.486;2023-03-11T03:49:43;1.08;;;0.40;;
39426;SDS011;25938;48.470;1.486;2023-03-11T03:52:09;0.77;;;0.40;;
39426;SDS011;25938;48.470;1.486;2023-03-11T03:54:35;1.05;;;0.30;;
39426;SDS011;25938;48.470;1.486;2023-03-11T03:57:02;0.55;;;0.50;;
39426;SDS011;25938;48.470;1.486;2023-03-11T03:59:29;1.48;;;0.60;;
39426;SDS011;25938;48.470;1.486;2023-03-11T04:01:55;0.80;;;0.30;;
39426;SDS011;25938;48.470;1.486;2023-03-11T04:04:21;0.55;;;0.50;;
39426;SDS011;25938;48.470;1.486;2023-03-11T04:06:47;0.82;;;0.40;;
39426;SDS011;25938;48.470;1.486;2023-03-11T04:09:14;1.52;;;0.32;;
39426;SDS011;25938;48.470;1.486;2023-03-11T04:11:40;0.63;;;0.32;;
39426;SDS011;25938;48.470;1.486;2023-03-11T04:14:06;0.93;;;0.50;;
39426;SDS011;25938;48.470;1.486;2023-03-11T04:16:32;0.28;;;0.20;;
39426;SDS011;25938;48.470;1.486;2023-03-11T04:18:58;0.77;;;0.50;;
39426;SDS011;25938;48.470;1.486;2023-03-11T04:21:24;0.30;;;0.20;;
39426;SDS011;25938;48.470;1.486;2023-03-11T04:23:50;0.52;;;0.30;;
39426;SDS011;25938;48.470;1.486;2023-03-11T04:26:16;0.50;;;0.43;;
39426;SDS011;25938;48.470;1.486;2023-03-11T04:28:42;1.10;;;0.32;;
39426;SDS011;25938;48.470;1.486;2023-03-11T04:31:08;0.68;;;0.40;;
39426;SDS011;25938;48.470;1.486;2023-03-11T04:33:35;0.47;;;0.20;;
39426;SDS011;25938;48.470;1.486;2023-03-11T04:36:05;0.60;;;0.60;;
39426;SDS011;25938;48.470;1.486;2023-03-11T04:38:31;0.73;;;0.60;;
39426;SDS011;25938;48.470;1.486;2023-03-11T04:41:01;0.25;;;0.13;;
39426;SDS011;25938;48.470;1.486;2023-03-11T04:43:27;1.40;;;0.52;;
39426;SDS011;25938;48.470;1.486;2023-03-11T04:45:53;0.65;;;0.40;;
39426;SDS011;25938;48.470;1.486;2023-03-11T04:48:19;0.70;;;0.45;;
39426;SDS011;25938;48.470;1.486;2023-03-11T04:50:45;0.63;;;0.60;;
39426;SDS011;25938;48.470;1.486;2023-03-11T04:53:11;1.10;;;0.40;;
39426;SDS011;25938;48.470;1.486;2023-03-11T04:55:37;1.17;;;0.30;;
39426;SDS011;25938;48.470;1.486;2023-03-11T04:58:04;0.88;;;0.50;;
39426;SDS011;25938;48.470;1.486;2023-03-11T05:00:30;0.70;;;0.22;;
39426;SDS011;25938;48.470;1.486;2023-03-11T05:02:56;0.85;;;0.45;;
39426;SDS011;25938;48.470;1.486;2023-03-11T05:05:22;0.57;;;0.30;;
39426;SDS011;25938;48.470;1.486;2023-03-11T05:07:48;0.95;;;0.45;;
39426;SDS011;25938;48.470;1.486;2023-03-11T05:10:14;1.48;;;0.50;;
39426;SDS011;25938;48.470;1.486;2023-03-11T05:12:46;1.20;;;0.38;;
39426;SDS011;25938;48.470;1.486;2023-03-11T05:15:12;0.40;;;0.32;;
39426;SDS011;25938;48.470;1.486;2023-03-11T05:17:38;1.40;;;0.40;;
39426;SDS011;25938;48.470;1.486;2023-03-11T05:20:04;0.63;;;0.28;;
39426;SDS011;25938;48.470;1.486;2023-03-11T05:22:32;0.70;;;0.25;;
39426;SDS011;25938;48.470;1.486;2023-03-11T05:24:58;1.92;;;0.25;;
39426;SDS011;25938;48.470;1.486;2023-03-11T05:27:24;0.90;;;0.45;;
39426;SDS011;25938;48.470;1.486;2023-03-11T05:29:50;1.38;;;0.50;;
39426;SDS011;25938;48.470;1.486;2023-03-11T05:32:16;0.65;;;0.50;;
39426;SDS011;25938;48.470;1.486;2023-03-11T05:34:43;1.00;;;0.57;;
39426;SDS011;25938;48.470;1.486;2023-03-11T05:37:09;2.05;;;0.52;;
39426;SDS011;25938;48.470;1.486;2023-03-11T05:39:35;0.90;;;0.40;;
39426;SDS011;25938;48.470;1.486;2023-03-11T05:42:02;0.98;;;0.20;;
39426;SDS011;25938;48.470;1.486;2023-03-11T05:44:28;0.40;;;0.40;;
39426;SDS011;25938;48.470;1.486;2023-03-11T05:46:54;0.85;;;0.50;;
39426;SDS011;25938;48.470;1.486;2023-03-11T05:49:21;0.63;;;0.47;;
39426;SDS011;25938;48.470;1.486;2023-03-11T05:51:47;0.50;;;0.25;;
39426;SDS011;25938;48.470;1.486;2023-03-11T05:54:14;0.50;;;0.40;;
39426;SDS011;25938;48.470;1.486;2023-03-11T05:56:40;1.52;;;0.35;;
39426;SDS011;25938;48.470;1.486;2023-03-11T05:59:07;0.88;;;0.30;;
39426;SDS011;25938;48.470;1.486;2023-03-11T06:01:33;2.50;;;0.30;;
39426;SDS011;25938;48.470;1.486;2023-03-11T06:03:59;1.00;;;0.20;;
39426;SDS011;25938;48.470;1.486;2023-03-11T06:06:25;0.60;;;0.30;;
39426;SDS011;25938;48.470;1.486;2023-03-11T06:08:51;0.65;;;0.20;;
39426;SDS011;25938;48.470;1.486;2023-03-11T06:11:18;0.93;;;0.20;;
39426;SDS011;25938;48.470;1.486;2023-03-11T06:13:44;0.55;;;0.25;;
39426;SDS011;25938;48.470;1.486;2023-03-11T06:16:11;1.13;;;0.40;;
39426;SDS011;25938;48.470;1.486;2023-03-11T06:18:37;0.68;;;0.40;;
39426;SDS011;25938;48.470;1.486;2023-03-11T06:21:03;0.77;;;0.32;;
39426;SDS011;25938;48.470;1.486;2023-03-11T06:23:29;0.75;;;0.30;;
39426;SDS011;25938;48.470;1.486;2023-03-11T06:25:56;0.47;;;0.20;;
39426;SDS011;25938;48.470;1.486;2023-03-11T06:28:22;0.50;;;0.30;;
39426;SDS011;25938;48.470;1.486;2023-03-11T06:30:48;0.90;;;0.20;;
39426;SDS011;25938;48.470;1.486;2023-03-11T06:33:14;0.52;;;0.28;;
39426;SDS011;25938;48.470;1.486;2023-03-11T06:35:40;0.35;;;0.20;;
39426;SDS011;25938;48.470;1.486;2023-03-11T06:38:06;0.65;;;0.30;;
39426;SDS011;25938;48.470;1.486;2023-03-11T06:40:32;2.35;;;1.13;;
39426;SDS011;25938;48.470;1.486;2023-03-11T06:42:58;0.52;;;0.38;;
39426;SDS011;25938;48.470;1.486;2023-03-11T06:45:24;0.40;;;0.20;;
39426;SDS011;25938;48.470;1.486;2023-03-11T06:47:51;0.38;;;0.30;;
39426;SDS011;25938;48.470;1.486;2023-03-11T06:50:17;1.75;;;0.30;;
39426;SDS011;25938;48.470;1.486;2023-03-11T06:52:43;0.40;;;0.40;;
39426;SDS011;25938;48.470;1.486;2023-03-11T06:55:09;0.88;;;0.20;;
39426;SDS011;25938;48.470;1.486;2023-03-11T06:57:35;0.35;;;0.20;;
39426;SDS011;25938;48.470;1.486;2023-03-11T07:00:01;1.00;;;0.30;;
39426;SDS011;25938;48.470;1.486;2023-03-11T07:02:30;1.45;;;0.40;;
39426;SDS011;25938;48.470;1.486;2023-03-11T07:04:56;1.63;;;0.45;;
39426;SDS011;25938;48.470;1.486;2023-03-11T07:07:22;0.85;;;0.30;;
39426;SDS011;25938;48.470;1.486;2023-03-11T07:09:48;0.70;;;0.40;;
39426;SDS011;25938;48.470;1.486;2023-03-11T07:12:14;0.60;;;0.45;;
39426;SDS011;25938;48.470;1.486;2023-03-11T07:14:41;0.30;;;0.22;;
39426;SDS011;25938;48.470;1.486;2023-03-11T07:17:07;0.60;;;0.40;;
39426;SDS011;25938;48.470;1.486;2023-03-11T07:19:33;1.75;;;0.35;;
39426;SDS011;25938;48.470;1.486;2023-03-11T07:21:59;1.15;;;0.40;;
39426;SDS011;25938;48.470;1.486;2023-03-11T07:24:26;0.43;;;0.40;;
39426;SDS011;25938;48.470;1.486;2023-03-11T07:26:52;0.90;;;0.22;;
39426;SDS011;25938;48.470;1.486;2023-03-11T07:29:18;0.80;;;0.35;;
39426;SDS011;25938;48.470;1.486;2023-03-11T07:31:44;0.30;;;0.30;;
39426;SDS011;25938;48.470;1.486;2023-03-11T07:34:10;0.40;;;0.32;;
39426;SDS011;25938;48.470;1.486;2023-03-11T07:36:40;0.60;;;0.32;;
39426;SDS011;25938;48.470;1.486;2023-03-11T07:39:06;1.05;;;0.63;;
39426;SDS011;25938;48.470;1.486;2023-03-11T07:41:33;0.60;;;0.30;;
39426;SDS011;25938;48.470;1.486;2023-03-11T07:44:00;0.98;;;0.40;;
39426;SDS011;25938;48.470;1.486;2023-03-11T07:46:27;0.70;;;0.60;;
39426;SDS011;25938;48.470;1.486;2023-03-11T07:48:53;0.60;;;0.28;;
39426;SDS011;25938;48.470;1.486;2023-03-11T07:51:21;0.88;;;0.38;;
39426;SDS011;25938;48.470;1.486;2023-03-11T07:53:47;0.98;;;0.28;;
39426;SDS011;25938;48.470;1.486;2023-03-11T07:56:15;0.40;;;0.40;;
39426;SDS011;25938;48.470;1.486;2023-03-11T07:58:41;1.00;;;0.38;;
39426;SDS011;25938;48.470;1.486;2023-03-11T08:01:09;1.15;;;0.40;;
39426;SDS011;25938;48.470;1.486;2023-03-11T08:03:35;1.27;;;0.35;;
39426;SDS011;25938;48.470;1.486;2023-03-11T08:06:02;0.32;;;0.30;;
39426;SDS011;25938;48.470;1.486;2023-03-11T08:08:29;0.88;;;0.55;;
39426;SDS011;25938;48.470;1.486;2023-03-11T08:10:55;1.20;;;0.30;;
39426;SDS011;25938;48.470;1.486;2023-03-11T08:13:21;1.23;;;0.40;;
39426;SDS011;25938;48.470;1.486;2023-03-11T08:15:47;0.30;;;0.30;;
39426;SDS011;25938;48.470;1.486;2023-03-11T08:18:13;0.35;;;0.30;;
39426;SDS011;25938;48.470;1.486;2023-03-11T08:20:39;0.35;;;0.20;;
39426;SDS011;25938;48.470;1.486;2023-03-11T08:23:05;0.75;;;0.40;;
39426;SDS011;25938;48.470;1.486;2023-03-11T08:25:31;2.92;;;0.30;;
39426;SDS011;25938;48.470;1.486;2023-03-11T08:27:57;0.60;;;0.50;;
39426;SDS011;25938;48.470;1.486;2023-03-11T08:30:23;0.85;;;0.30;;
39426;SDS011;25938;48.470;1.486;2023-03-11T08:32:49;0.20;;;0.20;;
39426;SDS011;25938;48.470;1.486;2023-03-11T08:35:15;0.70;;;0.20;;
39426;SDS011;25938;48.470;1.486;2023-03-11T08:37:42;1.90;;;0.20;;
39426;SDS011;25938;48.470;1.486;2023-03-11T08:40:08;0.60;;;0.43;;
39426;SDS011;25938;48.470;1.486;2023-03-11T08:42:34;0.80;;;0.40;;
39426;SDS011;25938;48.470;1.486;2023-03-11T08:45:01;0.68;;;0.38;;
39426;SDS011;25938;48.470;1.486;2023-03-11T08:47:27;3.30;;;1.35;;
39426;SDS011;25938;48.470;1.486;2023-03-11T08:49:53;0.20;;;0.20;;
39426;SDS011;25938;48.470;1.486;2023-03-11T08:52:19;0.30;;;0.25;;
39426;SDS011;25938;48.470;1.486;2023-03-11T08:54:45;2.22;;;0.85;;
39426;SDS011;25938;48.470;1.486;2023-03-11T08:57:11;0.38;;;0.20;;
39426;SDS011;25938;48.470;1.486;2023-03-11T08:59:37;0.28;;;0.20;;
39426;SDS011;25938;48.470;1.486;2023-03-11T09:02:03;0.40;;;0.17;;
39426;SDS011;25938;48.470;1.486;2023-03-11T09:04:29;0.30;;;0.22;;
39426;SDS011;25938;48.470;1.486;2023-03-11T09:06:55;0.20;;;0.10;;
39426;SDS011;25938;48.470;1.486;2023-03-11T09:09:21;0.30;;;0.15;;
39426;SDS011;25938;48.470;1.486;2023-03-11T09:11:47;0.55;;;0.20;;
39426;SDS011;25938;48.470;1.486;2023-03-11T09:14:13;0.30;;;0.10;;
39426;SDS011;25938;48.470;1.486;2023-03-11T09:16:39;1.00;;;0.20;;
39426;SDS011;25938;48.470;1.486;2023-03-11T09:19:05;0.40;;;0.25;;
39426;SDS011;25938;48.470;1.486;2023-03-11T09:21:32;0.50;;;0.25;;
39426;SDS011;25938;48.470;1.486;2023-03-11T09:23:58;0.63;;;0.30;;
39426;SDS011;25938;48.470;1.486;2023-03-11T09:26:25;0.63;;;0.20;;
39426;SDS011;25938;48.470;1.486;2023-03-11T09:28:51;0.20;;;0.13;;
39426;SDS011;25938;48.470;1.486;2023-03-11T09:31:17;0.47;;;0.45;;
39426;SDS011;25938;48.470;1.486;2023-03-11T09:33:43;0.60;;;0.57;;
39426;SDS011;25938;48.470;1.486;2023-03-11T09:36:11;0.70;;;0.25;;
39426;SDS011;25938;48.470;1.486;2023-03-11T09:38:37;1.55;;;0.30;;
39426;SDS011;25938;48.470;1.486;2023-03-11T09:41:08;1.05;;;0.20;;
39426;SDS011;25938;48.470;1.486;2023-03-11T09:46:18;0.38;;;0.20;;
39426;SDS011;25938;48.470;1.486;2023-03-11T09:48:51;0.28;;;0.20;;
39426;SDS011;25938;48.470;1.486;2023-03-11T09:51:26;0.57;;;0.40;;
39426;SDS011;25938;48.470;1.486;2023-03-11T09:53:55;0.80;;;0.22;;
39426;SDS011;25938;48.470;1.486;2023-03-11T09:56:23;1.00;;;0.20;;
39426;SDS011;25938;48.470;1.486;2023-03-11T09:58:50;1.15;;;0.40;;
39426;SDS011;25938;48.470;1.486;2023-03-11T10:01:22;0.90;;;0.30;;
39426;SDS011;25938;48.470;1.486;2023-03-11T10:03:49;0.95;;;0.20;;
39426;SDS011;25938;48.470;1.486;2023-03-11T10:06:27;0.50;;;0.30;;
39426;SDS011;25938;48.470;1.486;2023-03-11T10:09:13;0.88;;;0.30;;
39426;SDS011;25938;48.470;1.486;2023-03-11T10:11:49;0.28;;;0.20;;
39426;SDS011;25938;48.470;1.486;2023-03-11T10:17:10;0.30;;;0.20;;
39426;SDS011;25938;48.470;1.486;2023-03-11T10:19:48;1.58;;;0.38;;
39426;SDS011;25938;48.470;1.486;2023-03-11T10:24:55;0.65;;;0.20;;
39426;SDS011;25938;48.470;1.486;2023-03-11T10:27:40;0.95;;;0.30;;
39426;SDS011;25938;48.470;1.486;2023-03-11T10:32:49;1.00;;;0.30;;
39426;SDS011;25938;48.470;1.486;2023-03-11T10:35:18;0.50;;;0.30;;
39426;SDS011;25938;48.470;1.486;2023-03-11T10:38:32;1.20;;;0.77;;
39426;SDS011;25938;48.470;1.486;2023-03-11T10:40:34;0.68;;;0.45;;
39426;SDS011;25938;48.470;1.486;2023-03-11T10:43:02;0.40;;;0.30;;
39426;SDS011;25938;48.470;1.486;2023-03-11T10:45:31;0.30;;;0.20;;
39426;SDS011;25938;48.470;1.486;2023-03-11T10:47:58;0.50;;;0.20;;
39426;SDS011;25938;48.470;1.486;2023-03-11T10:50:24;0.47;;;0.20;;
39426;SDS011;25938;48.470;1.486;2023-03-11T10:53:09;1.98;;;0.30;;
39426;SDS011;25938;48.470;1.486;2023-03-11T10:55:43;0.45;;;0.45;;
39426;SDS011;25938;48.470;1.486;2023-03-11T10:58:11;0.40;;;0.13;;
39426;SDS011;25938;48.470;1.486;2023-03-11T11:00:38;1.15;;;0.32;;
39426;SDS011;25938;48.470;1.486;2023-03-11T11:03:10;0.30;;;0.17;;
39426;SDS011;25938;48.470;1.486;2023-03-11T11:05:37;0.60;;;0.35;;
39426;SDS011;25938;48.470;1.486;2023-03-11T11:10:33;0.52;;;0.25;;
39426;SDS011;25938;48.470;1.486;2023-03-11T11:18:26;2.85;;;1.80;;
39426;SDS011;25938;48.470;1.486;2023-03-11T11:21:36;1.02;;;0.57;;
39426;SDS011;25938;48.470;1.486;2023-03-11T11:23:40;1.13;;;0.60;;
39426;SDS011;25938;48.470;1.486;2023-03-11T11:26:13;0.82;;;0.63;;
39426;SDS011;25938;48.470;1.486;2023-03-11T11:28:40;1.08;;;0.38;;
39426;SDS011;25938;48.470;1.486;2023-03-11T11:31:18;0.63;;;0.43;;
39426;SDS011;25938;48.470;1.486;2023-03-11T11:36:14;2.78;;;0.30;;
39426;SDS011;25938;48.470;1.486;2023-03-11T11:38:41;2.55;;;0.35;;
39426;SDS011;25938;48.470;1.486;2023-03-11T11:41:08;0.38;;;0.30;;
39426;SDS011;25938;48.470;1.486;2023-03-11T11:46:42;0.80;;;0.52;;
39426;SDS011;25938;48.470;1.486;2023-03-11T11:51:50;1.00;;;0.40;;
39426;SDS011;25938;48.470;1.486;2023-03-11T11:56:56;0.50;;;0.32;;
39426;SDS011;25938;48.470;1.486;2023-03-11T11:59:23;2.03;;;0.40;;
39426;SDS011;25938;48.470;1.486;2023-03-11T12:02:01;1.23;;;0.40;;
39426;SDS011;25938;48.470;1.486;2023-03-11T12:12:42;0.85;;;0.20;;
39426;SDS011;25938;48.470;1.486;2023-03-11T12:15:36;1.52;;;0.40;;
39426;SDS011;25938;48.470;1.486;2023-03-11T12:18:04;0.77;;;0.40;;
39426;SDS011;25938;48.470;1.486;2023-03-11T12:20:38;1.80;;;0.30;;
39426;SDS011;25938;48.470;1.486;2023-03-11T12:31:04;0.20;;;0.20;;
39426;SDS011;25938;48.470;1.486;2023-03-11T12:33:34;0.35;;;0.35;;
39426;SDS011;25938;48.470;1.486;2023-03-11T12:36:02;0.73;;;0.20;;
39426;SDS011;25938;48.470;1.486;2023-03-11T12:38:30;0.40;;;0.20;;
39426;SDS011;25938;48.470;1.486;2023-03-11T12:45:54;0.50;;;0.30;;
39426;SDS011;25938;48.470;1.486;2023-03-11T12:48:44;1.23;;;0.43;;
39426;SDS011;25938;48.470;1.486;2023-03-11T12:53:51;0.50;;;0.43;;
39426;SDS011;25938;48.470;1.486;2023-03-11T12:59:02;0.65;;;0.65;;
39426;SDS011;25938;48.470;1.486;2023-03-11T13:02:17;0.93;;;0.55;;
39426;SDS011;25938;48.470;1.486;2023-03-11T13:04:22;1.65;;;0.77;;
39426;SDS011;25938;48.470;1.486;2023-03-11T13:09:39;2.35;;;1.35;;
39426;SDS011;25938;48.470;1.486;2023-03-11T13:12:36;2.22;;;1.20;;
39426;SDS011;25938;48.470;1.486;2023-03-11T13:30:40;1.17;;;1.13;;
39426;SDS011;25938;48.470;1.486;2023-03-11T13:35:59;0.80;;;0.63;;
39426;SDS011;25938;48.470;1.486;2023-03-11T13:41:21;0.80;;;0.80;;
39426;SDS011;25938;48.470;1.486;2023-03-11T13:43:49;2.13;;;0.90;;
39426;SDS011;25938;48.470;1.486;2023-03-11T13:46:35;1.80;;;0.47;;
39426;SDS011;25938;48.470;1.486;2023-03-11T13:49:13;1.77;;;1.17;;
39426;SDS011;25938;48.470;1.486;2023-03-11T13:51:45;2.22;;;1.40;;
39426;SDS011;25938;48.470;1.486;2023-03-11T13:56:47;2.05;;;0.63;;
39426;SDS011;25938;48.470;1.486;2023-03-11T14:01:53;1.45;;;0.68;;
39426;SDS011;25938;48.470;1.486;2023-03-11T14:04:31;2.20;;;1.17;;
39426;SDS011;25938;48.470;1.486;2023-03-11T14:06:58;1.58;;;0.95;;
39426;SDS011;25938;48.470;1.486;2023-03-11T14:09:25;1.13;;;1.00;;
39426;SDS011;25938;48.470;1.486;2023-03-11T14:11:52;2.20;;;0.95;;
39426;SDS011;25938;48.470;1.486;2023-03-11T14:14:28;1.27;;;0.63;;
39426;SDS011;25938;48.470;1.486;2023-03-11T14:16:55;1.58;;;0.75;;
39426;SDS011;25938;48.470;1.486;2023-03-11T14:19:22;0.80;;;0.70;;
39426;SDS011;25938;48.470;1.486;2023-03-11T14:21:49;0.60;;;0.43;;
39426;SDS011;25938;48.470;1.486;2023-03-11T14:24:16;1.77;;;0.77;;
39426;SDS011;25938;48.470;1.486;2023-03-11T14:26:43;1.88;;;0.65;;
39426;SDS011;25938;48.470;1.486;2023-03-11T14:29:52;1.00;;;0.85;;
39426;SDS011;25938;48.470;1.486;2023-03-11T14:31:59;1.17;;;0.50;;
39426;SDS011;25938;48.470;1.486;2023-03-11T14:34:26;2.05;;;0.80;;
39426;SDS011;25938;48.470;1.486;2023-03-11T14:36:59;1.27;;;0.80;;
39426;SDS011;25938;48.470;1.486;2023-03-11T14:39:31;0.80;;;0.60;;
39426;SDS011;25938;48.470;1.486;2023-03-11T14:42:00;1.02;;;0.88;;
39426;SDS011;25938;48.470;1.486;2023-03-11T14:44:27;0.82;;;0.55;;
39426;SDS011;25938;48.470;1.486;2023-03-11T14:46:58;3.17;;;0.82;;
39426;SDS011;25938;48.470;1.486;2023-03-11T14:49:26;0.57;;;0.40;;
39426;SDS011;25938;48.470;1.486;2023-03-11T14:51:55;1.38;;;0.90;;
39426;SDS011;25938;48.470;1.486;2023-03-11T14:54:22;0.65;;;0.65;;
39426;SDS011;25938;48.470;1.486;2023-03-11T14:56:53;1.38;;;0.65;;
39426;SDS011;25938;48.470;1.486;2023-03-11T14:59:22;1.92;;;0.90;;
39426;SDS011;25938;48.470;1.486;2023-03-11T15:01:50;0.70;;;0.32;;
39426;SDS011;25938;48.470;1.486;2023-03-11T15:06:48;0.75;;;0.68;;
39426;SDS011;25938;48.470;1.486;2023-03-11T15:09:15;1.02;;;0.65;;
39426;SDS011;25938;48.470;1.486;2023-03-11T15:11:54;1.25;;;0.70;;
39426;SDS011;25938;48.470;1.486;2023-03-11T15:14:35;2.28;;;1.15;;
39426;SDS011;25938;48.470;1.486;2023-03-11T15:17:35;1.13;;;0.80;;
39426;SDS011;25938;48.470;1.486;2023-03-11T15:19:56;1.08;;;0.43;;
39426;SDS011;25938;48.470;1.486;2023-03-11T15:24:49;0.82;;;0.70;;
39426;SDS011;25938;48.470;1.486;2023-03-11T15:27:37;1.50;;;0.70;;
39426;SDS011;25938;48.470;1.486;2023-03-11T15:30:04;1.05;;;0.63;;
39426;SDS011;25938;48.470;1.486;2023-03-11T15:35:11;1.98;;;0.70;;
39426;SDS011;25938;48.470;1.486;2023-03-11T15:37:38;1.33;;;0.88;;
39426;SDS011;25938;48.470;1.486;2023-03-11T15:40:18;2.10;;;1.73;;
39426;SDS011;25938;48.470;1.486;2023-03-11T15:42:44;2.15;;;1.83;;
39426;SDS011;25938;48.470;1.486;2023-03-11T15:45:14;3.78;;;1.95;;
39426;SDS011;25938;48.470;1.486;2023-03-11T15:47:40;1.45;;;1.35;;
39426;SDS011;25938;48.470;1.486;2023-03-11T15:50:12;1.65;;;1.23;;
39426;SDS011;25938;48.470;1.486;2023-03-11T15:52:38;3.75;;;1.17;;
39426;SDS011;25938;48.470;1.486;2023-03-11T15:55:04;2.03;;;1.85;;
39426;SDS011;25938;48.470;1.486;2023-03-11T15:57:30;2.80;;;1.35;;
39426;SDS011;25938;48.470;1.486;2023-03-11T15:59:57;2.25;;;1.42;;
39426;SDS011;25938;48.470;1.486;2023-03-11T16:02:25;1.95;;;0.88;;
39426;SDS011;25938;48.470;1.486;2023-03-11T16:04:52;1.42;;;1.33;;
39426;SDS011;25938;48.470;1.486;2023-03-11T16:07:18;1.90;;;1.40;;
39426;SDS011;25938;48.470;1.486;2023-03-11T16:09:44;1.38;;;1.00;;
39426;SDS011;25938;48.470;1.486;2023-03-11T16:12:14;1.33;;;1.30;;
39426;SDS011;25938;48.470;1.486;2023-03-11T16:14:41;1.73;;;1.35;;
39426;SDS011;25938;48.470;1.486;2023-03-11T16:17:07;4.43;;;1.20;;
39426;SDS011;25938;48.470;1.486;2023-03-11T16:19:34;1.48;;;1.38;;
39426;SDS011;25938;48.470;1.486;2023-03-11T16:22:00;1.92;;;1.15;;
39426;SDS011;25938;48.470;1.486;2023-03-11T16:24:27;2.45;;;1.25;;
39426;SDS011;25938;48.470;1.486;2023-03-11T16:26:53;2.00;;;1.23;;
39426;SDS011;25938;48.470;1.486;2023-03-11T16:29:20;2.13;;;1.10;;
39426;SDS011;25938;48.470;1.486;2023-03-11T16:31:47;1.85;;;1.33;;
39426;SDS011;25938;48.470;1.486;2023-03-11T16:34:13;1.75;;;1.15;;